createdAt,value
2023-05-20T00:02:04.408Z,4.40
2023-05-20T00:04:31.244Z,4.60
2023-05-20T00:06:58.083Z,4.63
2023-05-20T00:09:24.836Z,5.18
2023-05-20T00:11:51.645Z,6.18
2023-05-20T00:14:18.402Z,4.90
2023-05-20T00:16:45.119Z,4.88
2023-05-20T00:19:11.895Z,4.68
2023-05-20T00:21:38.680Z,5.18
2023-05-20T00:24:05.722Z,5.03
2023-05-20T00:26:32.521Z,4.72
2023-05-20T00:28:59.257Z,5.15
2023-05-20T00:31:26.197Z,5.22
2023-05-20T00:33:52.929Z,5.10
2023-05-20T00:36:19.638Z,5.63
2023-05-20T00:38:46.353Z,5.30
2023-05-20T00:41:13.163Z,5.18
2023-05-20T00:43:39.858Z,5.10
2023-05-20T00:46:06.690Z,5.47
2023-05-20T00:48:41.376Z,6.85
2023-05-20T00:51:08.562Z,5.10
2023-05-20T00:53:36.655Z,5.57
2023-05-20T00:56:04.612Z,5.35
2023-05-20T00:58:32.281Z,5.43
2023-05-20T01:00:59.072Z,5.32
2023-05-20T01:03:26.301Z,5.30
2023-05-20T01:05:53.105Z,5.22
2023-05-20T01:08:20.108Z,5.40
2023-05-20T01:10:47.804Z,5.60
2023-05-20T01:13:16.780Z,5.57
2023-05-20T01:15:44.536Z,5.93
2023-05-20T01:18:13.189Z,5.63
2023-05-20T01:20:40.034Z,5.50
2023-05-20T01:23:06.777Z,6.00
2023-05-20T01:25:33.856Z,5.75
2023-05-20T01:28:05.884Z,5.35
2023-05-20T01:30:46.298Z,5.70
2023-05-20T01:33:16.443Z,5.38
2023-05-20T01:35:43.252Z,5.95
2023-05-20T01:38:10.105Z,6.13
2023-05-20T01:40:37.041Z,5.57
2023-05-20T01:43:04.561Z,5.82
2023-05-20T01:45:31.827Z,5.40
2023-05-20T01:47:59.669Z,5.70
2023-05-20T01:50:26.886Z,6.15
2023-05-20T01:52:53.983Z,5.45
2023-05-20T01:55:20.735Z,5.80
2023-05-20T01:57:47.446Z,5.90
2023-05-20T02:00:14.478Z,6.40
2023-05-20T02:02:41.815Z,6.18
2023-05-20T02:05:11.335Z,5.80
2023-05-20T02:07:38.074Z,6.47
2023-05-20T02:10:05.421Z,6.35
2023-05-20T02:12:32.253Z,6.30
2023-05-20T02:14:59.231Z,6.40
2023-05-20T02:17:26.366Z,6.43
2023-05-20T02:19:53.078Z,7.13
2023-05-20T02:22:19.853Z,6.50
2023-05-20T02:24:46.700Z,6.82
2023-05-20T02:27:13.425Z,6.47
2023-05-20T02:29:40.136Z,6.38
2023-05-20T02:32:07.085Z,6.47
2023-05-20T02:34:33.864Z,6.50
2023-05-20T02:37:01.428Z,6.50
2023-05-20T02:39:29.313Z,6.35
2023-05-20T02:41:56.515Z,6.95
2023-05-20T02:44:23.857Z,7.43
2023-05-20T02:46:50.984Z,8.90
2023-05-20T02:49:17.747Z,6.32
2023-05-20T02:51:44.701Z,7.00
2023-05-20T02:54:11.507Z,6.70
2023-05-20T02:56:38.332Z,6.90
2023-05-20T02:59:07.308Z,7.07
2023-05-20T03:01:35.607Z,7.57
2023-05-20T03:04:03.534Z,7.15
2023-05-20T03:06:31.895Z,6.65
2023-05-20T03:08:59.417Z,6.85
2023-05-20T03:11:26.414Z,7.88
2023-05-20T03:13:53.301Z,7.15
2023-05-20T03:16:20.136Z,7.30
2023-05-20T03:18:46.972Z,7.63
2023-05-20T03:21:14.003Z,7.18
2023-05-20T03:23:40.952Z,7.03
2023-05-20T03:26:08.254Z,7.30
2023-05-20T03:28:35.918Z,7.93
2023-05-20T03:31:03.345Z,7.60
2023-05-20T03:33:33.795Z,7.50
2023-05-20T03:36:00.866Z,7.25
2023-05-20T03:38:27.780Z,7.13
2023-05-20T03:40:54.584Z,7.20
2023-05-20T03:43:22.140Z,7.35
2023-05-20T03:45:48.970Z,8.00
2023-05-20T03:48:15.726Z,6.88
2023-05-20T03:50:43.415Z,6.88
2023-05-20T03:53:11.030Z,6.93
2023-05-20T03:55:40.906Z,7.43
2023-05-20T03:58:09.167Z,7.82
2023-05-20T04:00:35.919Z,8.70
2023-05-20T04:03:03.116Z,8.13
2023-05-20T04:05:30.298Z,7.65
2023-05-20T04:07:57.870Z,7.32
2023-05-20T04:10:25.531Z,7.93
2023-05-20T04:12:53.954Z,7.32
2023-05-20T04:15:24.013Z,7.57
2023-05-20T04:17:58.708Z,7.38
2023-05-20T04:20:25.689Z,8.10
2023-05-20T04:22:55.413Z,7.13
2023-05-20T04:25:22.576Z,7.88
2023-05-20T04:27:50.319Z,7.75
2023-05-20T04:30:18.627Z,8.32
2023-05-20T04:32:45.607Z,7.55
2023-05-20T04:35:13.968Z,7.20
2023-05-20T04:37:49.648Z,7.18
2023-05-20T04:40:17.283Z,7.60
2023-05-20T04:42:44.989Z,7.72
2023-05-20T04:45:13.702Z,8.48
2023-05-20T04:47:41.993Z,8.05
2023-05-20T04:50:13.468Z,8.65
2023-05-20T04:52:43.196Z,7.90
2023-05-20T04:55:11.891Z,7.93
2023-05-20T04:57:42.828Z,8.05
2023-05-20T05:00:11.590Z,7.95
2023-05-20T05:02:39.475Z,7.45
2023-05-20T05:05:06.898Z,7.43
2023-05-20T05:07:33.906Z,8.10
2023-05-20T05:10:01.270Z,7.00
2023-05-20T05:12:30.492Z,6.90
2023-05-20T05:14:58.897Z,7.90
2023-05-20T05:17:26.550Z,7.90
2023-05-20T05:19:53.343Z,7.45
2023-05-20T05:22:20.078Z,7.82
2023-05-20T05:24:46.926Z,7.38
2023-05-20T05:27:14.165Z,8.05
2023-05-20T05:29:41.045Z,8.00
2023-05-20T05:32:08.000Z,7.03
2023-05-20T05:34:34.812Z,7.90
2023-05-20T05:37:01.546Z,8.68
2023-05-20T05:39:28.381Z,7.55
2023-05-20T05:41:56.254Z,8.38
2023-05-20T05:44:23.347Z,7.50
2023-05-20T05:46:50.214Z,7.40
2023-05-20T05:49:17.322Z,9.20
2023-05-20T05:51:44.610Z,7.38
2023-05-20T05:54:11.920Z,7.53
2023-05-20T05:56:38.734Z,7.78
2023-05-20T05:59:05.638Z,7.72
2023-05-20T06:01:32.633Z,7.70
2023-05-20T06:03:59.833Z,7.68
2023-05-20T06:06:27.028Z,8.05
2023-05-20T06:08:54.009Z,8.02
2023-05-20T06:11:21.834Z,8.05
2023-05-20T06:13:48.646Z,7.90
2023-05-20T06:16:16.807Z,7.80
2023-05-20T06:18:44.221Z,7.82
2023-05-20T06:21:11.145Z,7.40
2023-05-20T06:23:37.959Z,7.90
2023-05-20T06:26:08.202Z,8.10
2023-05-20T06:28:35.014Z,8.35
2023-05-20T06:31:02.621Z,7.43
2023-05-20T06:33:33.101Z,7.57
2023-05-20T06:36:05.754Z,7.80
2023-05-20T06:38:32.671Z,8.00
2023-05-20T06:40:59.516Z,7.65
2023-05-20T06:43:26.458Z,7.60
2023-05-20T06:46:02.559Z,7.65
2023-05-20T06:48:42.253Z,7.85
2023-05-20T06:51:09.532Z,7.70
2023-05-20T06:53:37.058Z,7.90
2023-05-20T06:56:04.134Z,7.40
2023-05-20T06:58:33.018Z,7.30
2023-05-20T07:01:00.288Z,7.65
2023-05-20T07:03:27.437Z,7.63
2023-05-20T07:05:54.335Z,8.50
2023-05-20T07:08:21.506Z,7.30
2023-05-20T07:10:48.439Z,6.65
2023-05-20T07:13:18.858Z,6.70
2023-05-20T07:15:49.267Z,7.20
2023-05-20T07:18:16.886Z,6.88
2023-05-20T07:20:47.581Z,7.78
2023-05-20T07:23:28.016Z,6.90
2023-05-20T07:25:56.536Z,7.00
2023-05-20T07:28:23.471Z,6.57
2023-05-20T07:30:50.591Z,6.35
2023-05-20T07:33:23.747Z,6.95
2023-05-20T07:35:50.689Z,6.32
2023-05-20T07:38:17.393Z,6.82
2023-05-20T07:40:46.548Z,6.70
2023-05-20T07:43:13.413Z,6.45
2023-05-20T07:45:40.369Z,6.88
2023-05-20T07:48:08.925Z,6.60
2023-05-20T07:50:36.820Z,6.28
2023-05-20T07:53:04.585Z,6.25
2023-05-20T07:55:37.150Z,6.32
2023-05-20T07:58:05.308Z,6.75
2023-05-20T08:00:34.397Z,6.38
2023-05-20T08:03:04.585Z,6.80
2023-05-20T08:05:41.908Z,6.07
2023-05-20T08:08:10.550Z,6.65
2023-05-20T08:10:51.279Z,6.75
2023-05-20T08:13:19.041Z,6.40
2023-05-20T08:15:45.786Z,6.43
2023-05-20T08:18:12.617Z,6.10
2023-05-20T08:20:39.445Z,6.20
2023-05-20T08:23:06.201Z,6.30
2023-05-20T08:25:33.273Z,6.40
2023-05-20T08:28:05.525Z,6.38
2023-05-20T08:30:34.015Z,6.25
2023-05-20T08:33:01.976Z,5.93
2023-05-20T08:35:30.286Z,6.40
2023-05-20T08:37:57.586Z,6.10
2023-05-20T08:40:26.851Z,5.78
2023-05-20T08:42:53.707Z,6.25
2023-05-20T08:45:26.523Z,5.60
2023-05-20T08:47:54.026Z,5.97
2023-05-20T08:50:21.150Z,6.32
2023-05-20T08:52:51.972Z,5.82
2023-05-20T08:55:39.496Z,5.90
2023-05-20T08:58:07.145Z,6.03
2023-05-20T09:00:34.053Z,5.35
2023-05-20T09:03:01.293Z,6.03
2023-05-20T09:05:28.837Z,5.25
2023-05-20T09:08:08.726Z,5.55
2023-05-20T09:10:36.786Z,5.35
2023-05-20T09:13:04.775Z,6.00
2023-05-20T09:15:32.755Z,5.43
2023-05-20T09:18:02.029Z,5.53
2023-05-20T09:20:32.100Z,5.63
2023-05-20T09:23:03.165Z,5.20
2023-05-20T09:25:29.884Z,5.45
2023-05-20T09:27:57.290Z,5.88
2023-05-20T09:30:24.587Z,5.15
2023-05-20T09:32:55.971Z,5.07
2023-05-20T09:35:24.050Z,5.25
2023-05-20T09:37:58.074Z,5.40
2023-05-20T09:40:29.642Z,4.83
2023-05-20T09:43:11.613Z,4.95
2023-05-20T09:45:38.847Z,5.05
2023-05-20T09:48:05.934Z,5.30
2023-05-20T09:50:32.932Z,5.32
2023-05-20T09:53:03.831Z,5.20
2023-05-20T09:55:31.297Z,5.00
2023-05-20T09:58:01.099Z,5.60
2023-05-20T10:00:27.839Z,5.05
2023-05-20T10:02:54.824Z,4.80
2023-05-20T10:05:22.142Z,5.25
2023-05-20T10:08:07.540Z,4.78
2023-05-20T10:13:23.946Z,5.22
2023-05-20T10:15:56.740Z,4.82
2023-05-20T10:19:08.862Z,4.68
2023-05-20T10:21:36.215Z,5.00
2023-05-20T10:24:10.614Z,4.90
2023-05-20T10:26:41.209Z,5.35
2023-05-20T10:29:22.668Z,4.80
2023-05-20T10:31:51.528Z,4.50
2023-05-20T10:34:22.536Z,5.30
2023-05-20T10:36:55.070Z,5.57
2023-05-20T10:39:34.265Z,5.43
2023-05-20T10:42:08.575Z,5.03
2023-05-20T10:44:45.812Z,5.47
2023-05-20T10:49:46.886Z,5.13
2023-05-20T10:52:14.400Z,6.38
2023-05-20T10:54:50.871Z,4.70
2023-05-20T10:57:18.674Z,4.78
2023-05-20T10:59:47.642Z,5.47
2023-05-20T11:02:16.592Z,5.10
2023-05-20T11:04:44.309Z,4.90
2023-05-20T11:07:13.850Z,4.82
2023-05-20T11:09:49.912Z,5.10
2023-05-20T11:12:17.451Z,5.00
2023-05-20T11:14:44.270Z,4.93
2023-05-20T11:17:11.177Z,4.85
2023-05-20T11:19:38.348Z,5.22
2023-05-20T11:22:08.231Z,4.75
2023-05-20T11:24:34.972Z,5.20
2023-05-20T11:27:02.258Z,6.20
2023-05-20T11:29:32.183Z,6.47
2023-05-20T11:32:00.249Z,5.57
2023-05-20T11:34:32.901Z,5.50
2023-05-20T11:37:00.145Z,7.53
2023-05-20T11:39:30.163Z,5.68
2023-05-20T11:41:58.111Z,5.70
2023-05-20T11:44:25.484Z,6.40
2023-05-20T11:46:52.312Z,6.85
2023-05-20T11:49:19.030Z,5.50
2023-05-20T11:51:45.947Z,5.88
2023-05-20T11:54:12.641Z,6.40
2023-05-20T11:56:41.621Z,6.70
2023-05-20T11:59:09.942Z,6.30
2023-05-20T12:01:42.161Z,6.28
2023-05-20T12:04:16.266Z,7.95
2023-05-20T12:06:44.163Z,6.05
2023-05-20T12:09:11.499Z,6.53
2023-05-20T12:11:42.283Z,6.25
2023-05-20T12:14:09.732Z,6.32
2023-05-20T12:16:37.828Z,6.20
2023-05-20T12:19:05.043Z,6.35
2023-05-20T12:21:32.088Z,6.10
2023-05-20T12:24:02.169Z,7.95
2023-05-20T12:26:29.487Z,6.47
2023-05-20T12:28:56.678Z,6.32
2023-05-20T12:31:23.892Z,6.30
2023-05-20T12:33:50.833Z,6.97
2023-05-20T12:36:17.633Z,6.68
2023-05-20T12:38:44.606Z,7.22
2023-05-20T12:41:11.912Z,6.97
2023-05-20T12:43:38.648Z,6.57
2023-05-20T12:46:05.922Z,6.70
2023-05-20T12:48:32.772Z,6.13
2023-05-20T12:51:00.115Z,6.50
2023-05-20T12:53:26.840Z,6.70
2023-05-20T12:55:53.715Z,7.03
2023-05-20T12:58:20.611Z,6.82
2023-05-20T13:00:47.401Z,7.05
2023-05-20T13:03:14.471Z,6.80
2023-05-20T13:05:41.364Z,8.90
2023-05-20T13:08:12.697Z,6.35
2023-05-20T13:10:39.519Z,7.30
2023-05-20T13:13:06.312Z,6.90
2023-05-20T13:15:36.822Z,7.18
2023-05-20T13:18:06.073Z,6.03
2023-05-20T13:20:32.949Z,6.35
2023-05-20T13:22:59.902Z,6.85
2023-05-20T13:25:26.750Z,7.60
2023-05-20T13:27:53.484Z,7.35
2023-05-20T13:30:20.285Z,6.57
2023-05-20T13:32:47.348Z,6.00
2023-05-20T13:35:16.957Z,6.45
2023-05-20T13:37:43.866Z,5.97
2023-05-20T13:40:11.325Z,6.57
2023-05-20T13:42:38.270Z,8.38
2023-05-20T13:45:06.252Z,8.57
2023-05-20T13:47:33.133Z,7.22
2023-05-20T13:50:02.675Z,6.45
2023-05-20T13:52:29.981Z,6.32
2023-05-20T13:54:56.716Z,6.80
2023-05-20T13:57:23.575Z,7.10
2023-05-20T13:59:50.435Z,7.30
2023-05-20T14:02:17.232Z,6.35
2023-05-20T14:04:45.078Z,6.63
2023-05-20T14:07:11.888Z,6.78
2023-05-20T14:09:38.993Z,7.25
2023-05-20T14:12:06.479Z,6.70
2023-05-20T14:14:33.276Z,6.72
2023-05-20T14:17:00.021Z,7.30
2023-05-20T14:19:27.195Z,6.85
2023-05-20T14:21:54.216Z,6.63
2023-05-20T14:24:23.459Z,7.10
2023-05-20T14:26:50.626Z,6.63
2023-05-20T14:29:17.632Z,6.90
2023-05-20T14:31:44.805Z,6.72
2023-05-20T14:34:11.767Z,6.82
2023-05-20T14:36:38.895Z,7.90
2023-05-20T14:39:05.745Z,7.03
2023-05-20T14:41:32.612Z,7.35
2023-05-20T14:43:59.432Z,7.38
2023-05-20T14:46:26.620Z,7.10
2023-05-20T14:48:53.486Z,7.55
2023-05-20T14:51:20.377Z,7.07
2023-05-20T14:53:47.089Z,7.03
2023-05-20T14:56:13.833Z,6.50
2023-05-20T14:58:40.791Z,6.75
2023-05-20T15:01:07.558Z,6.45
2023-05-20T15:03:34.510Z,7.75
2023-05-20T15:06:01.498Z,6.50
2023-05-20T15:08:28.399Z,6.43
2023-05-20T15:10:55.086Z,6.00
2023-05-20T15:13:22.030Z,6.63
2023-05-20T15:15:48.795Z,6.35
2023-05-20T15:18:15.528Z,6.15
2023-05-20T15:20:42.791Z,6.80
2023-05-20T15:23:09.798Z,6.78
2023-05-20T15:25:36.683Z,6.97
2023-05-20T15:28:03.637Z,6.43
2023-05-20T15:30:30.426Z,6.70
2023-05-20T15:32:57.829Z,6.13
2023-05-20T15:35:24.733Z,7.03
2023-05-20T15:37:51.487Z,6.80
2023-05-20T15:40:18.306Z,6.45
2023-05-20T15:42:45.075Z,6.15
2023-05-20T15:45:12.015Z,5.85
2023-05-20T15:47:40.719Z,6.78
2023-05-20T15:50:08.815Z,6.22
2023-05-20T15:52:35.793Z,5.80
2023-05-20T15:55:03.044Z,6.18
2023-05-20T15:57:30.755Z,6.20
2023-05-20T15:59:57.712Z,6.03
2023-05-20T16:02:25.097Z,6.15
2023-05-20T16:04:52.491Z,6.18
2023-05-20T16:07:19.248Z,6.40
2023-05-20T16:09:46.135Z,5.72
2023-05-20T16:12:12.958Z,5.85
2023-05-20T16:14:39.801Z,7.15
2023-05-20T16:17:06.595Z,5.85
2023-05-20T16:19:33.527Z,6.13
2023-05-20T16:22:00.470Z,5.97
2023-05-20T16:24:27.368Z,6.43
2023-05-20T16:26:54.125Z,6.35
2023-05-20T16:29:20.979Z,5.47
2023-05-20T16:31:47.818Z,6.00
2023-05-20T16:34:16.433Z,5.88
2023-05-20T16:36:46.410Z,5.90
2023-05-20T16:39:14.142Z,5.65
2023-05-20T16:41:41.572Z,6.13
2023-05-20T16:44:08.596Z,5.97
2023-05-20T16:46:35.347Z,6.15
2023-05-20T16:49:02.192Z,6.32
2023-05-20T16:51:28.950Z,5.60
2023-05-20T16:53:55.903Z,6.07
2023-05-20T16:56:23.046Z,5.70
2023-05-20T16:58:52.601Z,5.95
2023-05-20T17:01:20.331Z,6.07
2023-05-20T17:03:47.260Z,5.70
2023-05-20T17:06:14.027Z,6.05
2023-05-20T17:08:41.303Z,5.65
2023-05-20T17:11:08.010Z,5.97
2023-05-20T17:13:34.747Z,6.22
2023-05-20T17:16:01.486Z,5.50
2023-05-20T17:18:28.252Z,5.93
2023-05-20T17:20:54.970Z,5.80
2023-05-20T17:23:21.758Z,5.60
2023-05-20T17:25:48.548Z,5.68
2023-05-20T17:28:15.281Z,6.47
2023-05-20T17:30:45.107Z,5.70
2023-05-20T17:33:11.886Z,5.72
2023-05-20T17:35:38.673Z,5.55
2023-05-20T17:38:05.580Z,5.97
2023-05-20T17:40:32.483Z,5.85
2023-05-20T17:42:59.254Z,5.95
2023-05-20T17:45:26.094Z,5.70
2023-05-20T17:47:52.917Z,6.68
2023-05-20T17:50:19.696Z,5.50
2023-05-20T17:52:46.720Z,5.38
2023-05-20T17:55:14.573Z,5.55
2023-05-20T17:57:41.311Z,5.68
2023-05-20T18:00:09.398Z,5.57
2023-05-20T18:02:38.392Z,5.90
2023-05-20T18:05:06.482Z,6.03
2023-05-20T18:07:33.429Z,5.70
2023-05-20T18:10:00.200Z,5.72
2023-05-20T18:12:27.028Z,6.07
2023-05-20T18:14:53.689Z,7.93
2023-05-20T18:17:20.480Z,5.82
2023-05-20T18:19:47.371Z,7.93
2023-05-20T18:22:14.171Z,7.40
2023-05-20T18:24:42.034Z,7.18
2023-05-20T18:27:08.837Z,7.10
2023-05-20T18:29:35.605Z,5.00
2023-05-20T18:32:02.503Z,7.32
2023-05-20T18:34:29.451Z,5.88
2023-05-20T18:36:56.237Z,5.35
2023-05-20T18:39:23.030Z,7.30
2023-05-20T18:41:50.157Z,5.90
2023-05-20T18:44:18.041Z,5.90
2023-05-20T18:46:45.658Z,5.20
2023-05-20T18:49:12.510Z,6.45
2023-05-20T18:51:40.011Z,6.05
2023-05-20T18:54:07.019Z,5.55
2023-05-20T18:56:34.044Z,5.75
2023-05-20T18:59:00.759Z,5.43
2023-05-20T19:01:27.565Z,5.75
2023-05-20T19:03:54.314Z,5.72
2023-05-20T19:06:22.038Z,5.43
2023-05-20T19:08:52.019Z,6.00
2023-05-20T19:11:18.960Z,5.95
2023-05-20T19:13:45.949Z,6.82
2023-05-20T19:16:12.722Z,5.90
2023-05-20T19:18:39.636Z,5.50
2023-05-20T19:21:06.452Z,5.18
2023-05-20T19:23:33.190Z,5.68
2023-05-20T19:25:59.952Z,5.45
2023-05-20T19:28:26.933Z,5.22
2023-05-20T19:30:53.885Z,5.55
2023-05-20T19:33:21.344Z,5.20
2023-05-20T19:35:48.459Z,5.70
2023-05-20T19:38:15.558Z,5.13
2023-05-20T19:40:43.845Z,5.32
2023-05-20T19:43:11.014Z,5.55
2023-05-20T19:45:38.230Z,5.22
2023-05-20T19:48:06.064Z,5.60
2023-05-20T19:50:33.265Z,5.85
2023-05-20T19:53:00.190Z,5.70
2023-05-20T19:55:27.521Z,5.20
2023-05-20T19:57:54.303Z,5.10
2023-05-20T20:00:21.703Z,5.10
2023-05-20T20:02:48.902Z,5.30
2023-05-20T20:05:15.902Z,5.47
2023-05-20T20:07:42.804Z,5.43
2023-05-20T20:10:10.500Z,5.18
2023-05-20T20:12:37.299Z,5.95
2023-05-20T20:15:04.491Z,5.30
2023-05-20T20:17:33.613Z,5.25
2023-05-20T20:20:00.959Z,6.00
2023-05-20T20:22:27.802Z,6.40
2023-05-20T20:24:54.476Z,5.72
2023-05-20T20:27:23.807Z,6.60
2023-05-20T20:29:51.446Z,6.68
2023-05-20T20:32:18.514Z,6.57
2023-05-20T20:34:46.061Z,6.75
2023-05-20T20:37:15.184Z,7.25
2023-05-20T20:39:42.973Z,6.40
2023-05-20T20:42:09.744Z,6.50
2023-05-20T20:44:36.504Z,7.68
2023-05-20T20:47:04.518Z,6.40
2023-05-20T20:49:32.147Z,6.65
2023-05-20T20:51:59.070Z,6.35
2023-05-20T20:54:26.483Z,7.18
2023-05-20T20:56:56.771Z,6.68
2023-05-20T20:59:26.561Z,7.20
2023-05-20T21:01:54.233Z,6.93
2023-05-20T21:04:21.166Z,6.68
2023-05-20T21:06:48.003Z,6.78
2023-05-20T21:09:15.152Z,7.15
2023-05-20T21:11:42.435Z,7.05
2023-05-20T21:14:09.959Z,8.00
2023-05-20T21:16:37.117Z,7.18
2023-05-20T21:19:04.026Z,6.95
2023-05-20T21:21:31.760Z,7.25
2023-05-20T21:23:58.618Z,6.97
2023-05-20T21:26:25.805Z,6.93
2023-05-20T21:28:52.845Z,7.15
2023-05-20T21:31:19.792Z,6.90
2023-05-20T21:33:46.803Z,7.20
2023-05-20T21:36:13.539Z,7.45
2023-05-20T21:38:40.431Z,7.05
2023-05-20T21:41:07.696Z,7.80
2023-05-20T21:43:35.963Z,6.80
2023-05-20T21:46:02.766Z,7.93
2023-05-20T21:48:29.548Z,7.30
2023-05-20T21:50:56.301Z,7.65
2023-05-20T21:53:23.087Z,7.30
2023-05-20T21:55:49.915Z,7.47
2023-05-20T21:58:16.663Z,7.35
2023-05-20T22:00:43.460Z,7.70
2023-05-20T22:03:10.332Z,7.90
2023-05-20T22:05:37.400Z,7.70
2023-05-20T22:08:04.546Z,8.38
2023-05-20T22:10:33.838Z,8.27
2023-05-20T22:13:02.108Z,7.82
2023-05-20T22:15:28.980Z,7.65
2023-05-20T22:17:55.824Z,8.35
2023-05-20T22:20:22.920Z,7.78
2023-05-20T22:22:49.773Z,8.70
2023-05-20T22:25:17.435Z,7.70
2023-05-20T22:27:44.232Z,7.43
2023-05-20T22:30:11.876Z,8.13
2023-05-20T22:32:39.119Z,8.50
2023-05-20T22:35:06.582Z,8.68
2023-05-20T22:37:33.575Z,8.13
2023-05-20T22:40:00.701Z,7.78
2023-05-20T22:42:27.398Z,8.48
2023-05-20T22:44:54.289Z,8.43
2023-05-20T22:47:21.269Z,8.77
2023-05-20T22:49:48.012Z,8.77
2023-05-20T22:52:14.933Z,8.82
2023-05-20T22:54:41.645Z,7.88
2023-05-20T22:57:08.417Z,8.23
2023-05-20T22:59:36.623Z,8.07
2023-05-20T23:02:03.937Z,8.05
2023-05-20T23:04:30.728Z,8.00
2023-05-20T23:06:59.294Z,8.73
2023-05-20T23:09:26.448Z,8.40
2023-05-20T23:11:53.138Z,8.48
2023-05-20T23:14:20.222Z,8.75
2023-05-20T23:16:47.249Z,7.90
2023-05-20T23:19:14.456Z,8.07
2023-05-20T23:21:41.432Z,8.40
2023-05-20T23:24:08.266Z,7.80
2023-05-20T23:26:37.634Z,8.70
2023-05-20T23:29:05.225Z,10.68
2023-05-20T23:31:32.965Z,7.90
2023-05-20T23:34:01.093Z,8.27
2023-05-20T23:36:34.543Z,7.78
2023-05-20T23:39:02.165Z,9.60
2023-05-20T23:41:28.873Z,8.75
2023-05-20T23:43:55.771Z,8.45
2023-05-20T23:46:22.724Z,8.70
2023-05-20T23:48:49.938Z,8.40
2023-05-20T23:51:16.724Z,8.45
2023-05-20T23:53:44.304Z,8.73
2023-05-20T23:56:11.422Z,8.55
2023-05-20T23:58:38.219Z,8.60
